sensor_id;sensor_type;location;lat;lon;timestamp;P1;durP1;ratioP1;P2;durP2;ratioP2
8409;SDS011;4242;53.670;10.080;2022-11-09T00:01:28;3.97;;;1.80;;
8409;SDS011;4242;53.670;10.080;2022-11-09T00:03:58;1.50;;;1.40;;
8409;SDS011;4242;53.670;10.080;2022-11-09T00:06:24;3.53;;;1.70;;
8409;SDS011;4242;53.670;10.080;2022-11-09T00:08:51;2.87;;;1.63;;
8409;SDS011;4242;53.670;10.080;2022-11-09T00:11:17;2.57;;;1.60;;
8409;SDS011;4242;53.670;10.080;2022-11-09T00:13:43;2.03;;;1.60;;
8409;SDS011;4242;53.670;10.080;2022-11-09T00:16:10;3.30;;;1.80;;
8409;SDS011;4242;53.670;10.080;2022-11-09T00:18:37;4.10;;;1.73;;
8409;SDS011;4242;53.670;10.080;2022-11-09T00:21:10;3.20;;;1.60;;
8409;SDS011;4242;53.670;10.080;2022-11-09T00:23:37;2.17;;;1.60;;
8409;SDS011;4242;53.670;10.080;2022-11-09T00:26:04;4.00;;;1.73;;
8409;SDS011;4242;53.670;10.080;2022-11-09T00:28:30;2.07;;;1.70;;
8409;SDS011;4242;53.670;10.080;2022-11-09T00:30:57;2.50;;;1.63;;
8409;SDS011;4242;53.670;10.080;2022-11-09T00:33:23;2.03;;;1.80;;
8409;SDS011;4242;53.670;10.080;2022-11-09T00:35:49;3.73;;;1.80;;
8409;SDS011;4242;53.670;10.080;2022-11-09T00:38:15;4.07;;;1.70;;
8409;SDS011;4242;53.670;10.080;2022-11-09T00:40:41;3.13;;;1.70;;
8409;SDS011;4242;53.670;10.080;2022-11-09T00:43:07;1.77;;;1.67;;
8409;SDS011;4242;53.670;10.080;2022-11-09T00:45:34;2.40;;;1.57;;
8409;SDS011;4242;53.670;10.080;2022-11-09T00:48:00;1.70;;;1.60;;
8409;SDS011;4242;53.670;10.080;2022-11-09T00:50:26;2.57;;;1.87;;
8409;SDS011;4242;53.670;10.080;2022-11-09T00:52:52;3.17;;;1.90;;
8409;SDS011;4242;53.670;10.080;2022-11-09T00:55:18;2.57;;;1.80;;
8409;SDS011;4242;53.670;10.080;2022-11-09T00:57:47;2.50;;;1.60;;
8409;SDS011;4242;53.670;10.080;2022-11-09T01:00:17;4.57;;;1.90;;
8409;SDS011;4242;53.670;10.080;2022-11-09T01:02:43;1.93;;;1.70;;
8409;SDS011;4242;53.670;10.080;2022-11-09T01:05:09;2.80;;;1.77;;
8409;SDS011;4242;53.670;10.080;2022-11-09T01:07:36;2.37;;;1.70;;
8409;SDS011;4242;53.670;10.080;2022-11-09T01:10:03;1.87;;;1.77;;
8409;SDS011;4242;53.670;10.080;2022-11-09T01:12:29;4.37;;;1.90;;
8409;SDS011;4242;53.670;10.080;2022-11-09T01:14:55;3.20;;;1.67;;
8409;SDS011;4242;53.670;10.080;2022-11-09T01:17:21;3.40;;;1.77;;
8409;SDS011;4242;53.670;10.080;2022-11-09T01:19:47;1.60;;;1.50;;
8409;SDS011;4242;53.670;10.080;2022-11-09T01:22:13;3.87;;;1.80;;
8409;SDS011;4242;53.670;10.080;2022-11-09T01:24:39;2.20;;;1.60;;
8409;SDS011;4242;53.670;10.080;2022-11-09T01:27:05;2.20;;;1.50;;
8409;SDS011;4242;53.670;10.080;2022-11-09T01:29:31;1.70;;;1.60;;
8409;SDS011;4242;53.670;10.080;2022-11-09T01:31:57;2.43;;;1.77;;
8409;SDS011;4242;53.670;10.080;2022-11-09T01:34:23;2.60;;;1.60;;
8409;SDS011;4242;53.670;10.080;2022-11-09T01:36:50;2.93;;;1.73;;
8409;SDS011;4242;53.670;10.080;2022-11-09T01:39:16;1.80;;;1.70;;
8409;SDS011;4242;53.670;10.080;2022-11-09T01:41:43;2.33;;;1.50;;
8409;SDS011;4242;53.670;10.080;2022-11-09T01:44:10;2.43;;;1.90;;
8409;SDS011;4242;53.670;10.080;2022-11-09T01:46:42;1.67;;;1.57;;
8409;SDS011;4242;53.670;10.080;2022-11-09T01:49:13;1.90;;;1.57;;
8409;SDS011;4242;53.670;10.080;2022-11-09T01:51:48;1.67;;;1.50;;
8409;SDS011;4242;53.670;10.080;2022-11-09T01:54:23;2.23;;;1.53;;
8409;SDS011;4242;53.670;10.080;2022-11-09T01:56:51;2.03;;;1.83;;
8409;SDS011;4242;53.670;10.080;2022-11-09T01:59:19;3.20;;;1.90;;
8409;SDS011;4242;53.670;10.080;2022-11-09T02:01:46;2.43;;;1.67;;
8409;SDS011;4242;53.670;10.080;2022-11-09T02:04:21;4.40;;;1.60;;
8409;SDS011;4242;53.670;10.080;2022-11-09T02:06:47;2.10;;;1.50;;
8409;SDS011;4242;53.670;10.080;2022-11-09T02:11:43;3.03;;;1.60;;
8409;SDS011;4242;53.670;10.080;2022-11-09T02:14:09;1.90;;;1.80;;
8409;SDS011;4242;53.670;10.080;2022-11-09T02:16:35;4.60;;;1.70;;
8409;SDS011;4242;53.670;10.080;2022-11-09T02:19:02;2.83;;;1.67;;
8409;SDS011;4242;53.670;10.080;2022-11-09T02:21:28;2.50;;;1.70;;
8409;SDS011;4242;53.670;10.080;2022-11-09T02:23:55;2.80;;;1.77;;
8409;SDS011;4242;53.670;10.080;2022-11-09T02:26:32;3.17;;;1.90;;
8409;SDS011;4242;53.670;10.080;2022-11-09T02:28:59;2.83;;;1.67;;
8409;SDS011;4242;53.670;10.080;2022-11-09T02:31:28;1.70;;;1.60;;
8409;SDS011;4242;53.670;10.080;2022-11-09T02:33:59;2.03;;;1.40;;
8409;SDS011;4242;53.670;10.080;2022-11-09T02:36:26;3.63;;;1.57;;
8409;SDS011;4242;53.670;10.080;2022-11-09T02:38:53;2.60;;;1.73;;
8409;SDS011;4242;53.670;10.080;2022-11-09T02:41:20;1.60;;;1.50;;
8409;SDS011;4242;53.670;10.080;2022-11-09T02:43:46;3.00;;;1.70;;
8409;SDS011;4242;53.670;10.080;2022-11-09T02:46:12;1.77;;;1.67;;
8409;SDS011;4242;53.670;10.080;2022-11-09T02:48:38;1.90;;;1.80;;
8409;SDS011;4242;53.670;10.080;2022-11-09T02:51:04;2.87;;;1.63;;
8409;SDS011;4242;53.670;10.080;2022-11-09T02:53:30;4.23;;;1.83;;
8409;SDS011;4242;53.670;10.080;2022-11-09T02:55:56;1.60;;;1.50;;
8409;SDS011;4242;53.670;10.080;2022-11-09T02:58:22;4.70;;;1.80;;
8409;SDS011;4242;53.670;10.080;2022-11-09T03:00:48;7.43;;;1.77;;
8409;SDS011;4242;53.670;10.080;2022-11-09T03:03:14;2.27;;;1.63;;
8409;SDS011;4242;53.670;10.080;2022-11-09T03:05:40;2.63;;;1.83;;
8409;SDS011;4242;53.670;10.080;2022-11-09T03:08:08;4.57;;;1.90;;
8409;SDS011;4242;53.670;10.080;2022-11-09T03:10:34;2.57;;;1.70;;
8409;SDS011;4242;53.670;10.080;2022-11-09T03:13:00;3.37;;;1.77;;
8409;SDS011;4242;53.670;10.080;2022-11-09T03:15:25;2.00;;;1.70;;
8409;SDS011;4242;53.670;10.080;2022-11-09T03:17:51;2.67;;;1.70;;
8409;SDS011;4242;53.670;10.080;2022-11-09T03:20:17;3.30;;;1.70;;
8409;SDS011;4242;53.670;10.080;2022-11-09T03:22:43;3.17;;;1.70;;
8409;SDS011;4242;53.670;10.080;2022-11-09T03:25:09;3.67;;;2.00;;
8409;SDS011;4242;53.670;10.080;2022-11-09T03:27:35;2.80;;;1.80;;
8409;SDS011;4242;53.670;10.080;2022-11-09T03:30:01;2.53;;;1.90;;
8409;SDS011;4242;53.670;10.080;2022-11-09T03:32:27;1.77;;;1.43;;
8409;SDS011;4242;53.670;10.080;2022-11-09T03:34:53;2.57;;;1.60;;
8409;SDS011;4242;53.670;10.080;2022-11-09T03:37:19;1.83;;;1.70;;
8409;SDS011;4242;53.670;10.080;2022-11-09T03:39:45;1.77;;;1.67;;
8409;SDS011;4242;53.670;10.080;2022-11-09T03:42:11;3.57;;;1.50;;
8409;SDS011;4242;53.670;10.080;2022-11-09T03:44:37;2.20;;;1.70;;
8409;SDS011;4242;53.670;10.080;2022-11-09T03:47:03;2.23;;;1.63;;
8409;SDS011;4242;53.670;10.080;2022-11-09T03:49:29;1.70;;;1.60;;
8409;SDS011;4242;53.670;10.080;2022-11-09T03:51:55;1.97;;;1.60;;
8409;SDS011;4242;53.670;10.080;2022-11-09T03:54:21;1.67;;;1.57;;
8409;SDS011;4242;53.670;10.080;2022-11-09T03:56:47;1.70;;;1.60;;
8409;SDS011;4242;53.670;10.080;2022-11-09T03:59:13;2.03;;;1.60;;
8409;SDS011;4242;53.670;10.080;2022-11-09T04:01:39;2.70;;;1.80;;
8409;SDS011;4242;53.670;10.080;2022-11-09T04:04:05;4.63;;;2.10;;
8409;SDS011;4242;53.670;10.080;2022-11-09T04:06:31;8.27;;;1.80;;
8409;SDS011;4242;53.670;10.080;2022-11-09T04:08:57;3.93;;;1.90;;
8409;SDS011;4242;53.670;10.080;2022-11-09T04:11:23;1.93;;;1.73;;
8409;SDS011;4242;53.670;10.080;2022-11-09T04:13:49;1.50;;;1.40;;
8409;SDS011;4242;53.670;10.080;2022-11-09T04:16:15;2.90;;;1.63;;
8409;SDS011;4242;53.670;10.080;2022-11-09T04:18:41;2.97;;;1.73;;
8409;SDS011;4242;53.670;10.080;2022-11-09T04:21:07;2.20;;;1.80;;
8409;SDS011;4242;53.670;10.080;2022-11-09T04:23:33;2.40;;;1.73;;
8409;SDS011;4242;53.670;10.080;2022-11-09T04:28:30;2.97;;;1.60;;
8409;SDS011;4242;53.670;10.080;2022-11-09T04:30:58;1.97;;;1.77;;
8409;SDS011;4242;53.670;10.080;2022-11-09T04:33:24;3.10;;;1.50;;
8409;SDS011;4242;53.670;10.080;2022-11-09T04:35:50;1.50;;;1.40;;
8409;SDS011;4242;53.670;10.080;2022-11-09T04:38:17;6.63;;;1.70;;
8409;SDS011;4242;53.670;10.080;2022-11-09T04:40:43;3.97;;;1.90;;
8409;SDS011;4242;53.670;10.080;2022-11-09T04:43:11;1.83;;;1.60;;
8409;SDS011;4242;53.670;10.080;2022-11-09T04:45:38;1.77;;;1.67;;
8409;SDS011;4242;53.670;10.080;2022-11-09T04:48:05;2.40;;;1.40;;
8409;SDS011;4242;53.670;10.080;2022-11-09T04:50:31;2.57;;;1.70;;
8409;SDS011;4242;53.670;10.080;2022-11-09T04:53:07;4.27;;;1.97;;
8409;SDS011;4242;53.670;10.080;2022-11-09T04:55:33;2.10;;;1.40;;
8409;SDS011;4242;53.670;10.080;2022-11-09T04:57:59;4.03;;;1.80;;
8409;SDS011;4242;53.670;10.080;2022-11-09T05:00:25;2.93;;;1.60;;
8409;SDS011;4242;53.670;10.080;2022-11-09T05:02:51;4.03;;;1.40;;
8409;SDS011;4242;53.670;10.080;2022-11-09T05:05:17;2.50;;;1.60;;
8409;SDS011;4242;53.670;10.080;2022-11-09T05:07:43;2.10;;;1.57;;
8409;SDS011;4242;53.670;10.080;2022-11-09T05:10:09;2.47;;;1.43;;
8409;SDS011;4242;53.670;10.080;2022-11-09T05:12:35;2.73;;;1.70;;
8409;SDS011;4242;53.670;10.080;2022-11-09T05:15:01;2.33;;;1.57;;
8409;SDS011;4242;53.670;10.080;2022-11-09T05:17:27;1.80;;;1.60;;
8409;SDS011;4242;53.670;10.080;2022-11-09T05:19:53;2.50;;;1.43;;
8409;SDS011;4242;53.670;10.080;2022-11-09T05:22:19;3.13;;;1.70;;
8409;SDS011;4242;53.670;10.080;2022-11-09T05:25:03;2.43;;;1.70;;
8409;SDS011;4242;53.670;10.080;2022-11-09T05:27:29;2.47;;;1.87;;
8409;SDS011;4242;53.670;10.080;2022-11-09T05:29:55;1.83;;;1.70;;
8409;SDS011;4242;53.670;10.080;2022-11-09T05:32:21;2.07;;;1.70;;
8409;SDS011;4242;53.670;10.080;2022-11-09T05:34:47;4.30;;;2.00;;
8409;SDS011;4242;53.670;10.080;2022-11-09T05:37:13;3.90;;;1.67;;
8409;SDS011;4242;53.670;10.080;2022-11-09T05:39:41;1.97;;;1.83;;
8409;SDS011;4242;53.670;10.080;2022-11-09T05:42:07;4.90;;;1.90;;
8409;SDS011;4242;53.670;10.080;2022-11-09T05:44:34;5.13;;;1.90;;
8409;SDS011;4242;53.670;10.080;2022-11-09T05:47:00;3.27;;;1.83;;
8409;SDS011;4242;53.670;10.080;2022-11-09T05:49:26;3.80;;;1.73;;
8409;SDS011;4242;53.670;10.080;2022-11-09T05:51:52;3.67;;;1.90;;
8409;SDS011;4242;53.670;10.080;2022-11-09T05:54:18;2.40;;;1.70;;
8409;SDS011;4242;53.670;10.080;2022-11-09T05:56:44;1.93;;;1.63;;
8409;SDS011;4242;53.670;10.080;2022-11-09T05:59:09;2.70;;;1.70;;
8409;SDS011;4242;53.670;10.080;2022-11-09T06:01:35;1.70;;;1.60;;
8409;SDS011;4242;53.670;10.080;2022-11-09T06:04:01;3.73;;;1.77;;
8409;SDS011;4242;53.670;10.080;2022-11-09T06:06:27;2.67;;;1.90;;
8409;SDS011;4242;53.670;10.080;2022-11-09T06:08:54;2.13;;;1.73;;
8409;SDS011;4242;53.670;10.080;2022-11-09T06:11:20;4.47;;;1.90;;
8409;SDS011;4242;53.670;10.080;2022-11-09T06:13:46;3.60;;;2.00;;
8409;SDS011;4242;53.670;10.080;2022-11-09T06:16:12;2.60;;;1.90;;
8409;SDS011;4242;53.670;10.080;2022-11-09T06:18:37;5.27;;;1.73;;
8409;SDS011;4242;53.670;10.080;2022-11-09T06:21:04;2.60;;;1.53;;
8409;SDS011;4242;53.670;10.080;2022-11-09T06:23:30;2.10;;;1.90;;
8409;SDS011;4242;53.670;10.080;2022-11-09T06:25:58;2.10;;;1.90;;
8409;SDS011;4242;53.670;10.080;2022-11-09T06:28:24;3.30;;;1.60;;
8409;SDS011;4242;53.670;10.080;2022-11-09T06:30:50;2.57;;;2.00;;
8409;SDS011;4242;53.670;10.080;2022-11-09T06:33:16;1.87;;;1.70;;
8409;SDS011;4242;53.670;10.080;2022-11-09T06:35:42;3.70;;;1.73;;
8409;SDS011;4242;53.670;10.080;2022-11-09T06:38:08;4.23;;;1.73;;
8409;SDS011;4242;53.670;10.080;2022-11-09T06:40:37;3.53;;;2.03;;
8409;SDS011;4242;53.670;10.080;2022-11-09T06:43:04;4.30;;;2.10;;
8409;SDS011;4242;53.670;10.080;2022-11-09T06:45:30;3.33;;;1.80;;
8409;SDS011;4242;53.670;10.080;2022-11-09T06:47:57;4.63;;;1.60;;
8409;SDS011;4242;53.670;10.080;2022-11-09T06:50:23;2.73;;;1.60;;
8409;SDS011;4242;53.670;10.080;2022-11-09T06:52:49;2.17;;;1.30;;
8409;SDS011;4242;53.670;10.080;2022-11-09T06:55:15;2.90;;;1.60;;
8409;SDS011;4242;53.670;10.080;2022-11-09T06:57:41;4.20;;;1.80;;
8409;SDS011;4242;53.670;10.080;2022-11-09T07:00:07;6.00;;;1.93;;
8409;SDS011;4242;53.670;10.080;2022-11-09T07:02:34;1.97;;;1.70;;
8409;SDS011;4242;53.670;10.080;2022-11-09T07:05:00;3.73;;;1.60;;
8409;SDS011;4242;53.670;10.080;2022-11-09T07:07:26;1.73;;;1.53;;
8409;SDS011;4242;53.670;10.080;2022-11-09T07:09:52;4.43;;;1.70;;
8409;SDS011;4242;53.670;10.080;2022-11-09T07:12:19;2.70;;;1.60;;
8409;SDS011;4242;53.670;10.080;2022-11-09T07:14:45;3.20;;;1.70;;
8409;SDS011;4242;53.670;10.080;2022-11-09T07:17:11;3.83;;;1.57;;
8409;SDS011;4242;53.670;10.080;2022-11-09T07:19:37;2.70;;;1.90;;
8409;SDS011;4242;53.670;10.080;2022-11-09T07:22:03;3.27;;;1.70;;
8409;SDS011;4242;53.670;10.080;2022-11-09T07:24:29;2.60;;;1.70;;
8409;SDS011;4242;53.670;10.080;2022-11-09T07:26:55;2.03;;;1.70;;
8409;SDS011;4242;53.670;10.080;2022-11-09T07:29:21;1.90;;;1.80;;
8409;SDS011;4242;53.670;10.080;2022-11-09T07:31:47;3.67;;;1.80;;
8409;SDS011;4242;53.670;10.080;2022-11-09T07:34:13;2.70;;;1.53;;
8409;SDS011;4242;53.670;10.080;2022-11-09T07:36:39;2.10;;;1.90;;
8409;SDS011;4242;53.670;10.080;2022-11-09T07:39:05;8.03;;;1.70;;
8409;SDS011;4242;53.670;10.080;2022-11-09T07:41:31;2.30;;;1.60;;
8409;SDS011;4242;53.670;10.080;2022-11-09T07:43:57;5.73;;;1.60;;
8409;SDS011;4242;53.670;10.080;2022-11-09T07:46:23;2.20;;;1.67;;
8409;SDS011;4242;53.670;10.080;2022-11-09T07:48:49;6.23;;;1.70;;
8409;SDS011;4242;53.670;10.080;2022-11-09T07:51:15;3.70;;;1.60;;
8409;SDS011;4242;53.670;10.080;2022-11-09T07:53:41;3.57;;;1.67;;
8409;SDS011;4242;53.670;10.080;2022-11-09T07:56:07;3.63;;;1.70;;
8409;SDS011;4242;53.670;10.080;2022-11-09T07:58:33;5.77;;;1.70;;
8409;SDS011;4242;53.670;10.080;2022-11-09T08:01:01;3.67;;;1.77;;
8409;SDS011;4242;53.670;10.080;2022-11-09T08:03:31;3.03;;;1.67;;
8409;SDS011;4242;53.670;10.080;2022-11-09T08:05:57;3.60;;;1.50;;
8409;SDS011;4242;53.670;10.080;2022-11-09T08:08:23;3.13;;;1.87;;
8409;SDS011;4242;53.670;10.080;2022-11-09T08:10:49;3.80;;;1.80;;
8409;SDS011;4242;53.670;10.080;2022-11-09T08:13:17;7.60;;;2.00;;
8409;SDS011;4242;53.670;10.080;2022-11-09T08:15:43;8.17;;;1.80;;
8409;SDS011;4242;53.670;10.080;2022-11-09T08:18:10;5.97;;;1.93;;
8409;SDS011;4242;53.670;10.080;2022-11-09T08:20:36;1.83;;;1.50;;
8409;SDS011;4242;53.670;10.080;2022-11-09T08:23:02;5.70;;;1.80;;
8409;SDS011;4242;53.670;10.080;2022-11-09T08:25:28;6.30;;;2.00;;
8409;SDS011;4242;53.670;10.080;2022-11-09T08:27:55;3.87;;;1.70;;
8409;SDS011;4242;53.670;10.080;2022-11-09T08:30:21;7.63;;;1.93;;
8409;SDS011;4242;53.670;10.080;2022-11-09T08:32:48;6.30;;;2.07;;
8409;SDS011;4242;53.670;10.080;2022-11-09T08:35:15;5.93;;;1.83;;
8409;SDS011;4242;53.670;10.080;2022-11-09T08:37:45;4.90;;;1.87;;
8409;SDS011;4242;53.670;10.080;2022-11-09T08:40:11;3.70;;;1.90;;
8409;SDS011;4242;53.670;10.080;2022-11-09T08:42:38;8.03;;;1.93;;
8409;SDS011;4242;53.670;10.080;2022-11-09T08:45:04;4.97;;;2.00;;
8409;SDS011;4242;53.670;10.080;2022-11-09T08:47:30;4.90;;;1.70;;
8409;SDS011;4242;53.670;10.080;2022-11-09T08:49:56;2.77;;;1.67;;
8409;SDS011;4242;53.670;10.080;2022-11-09T08:52:22;4.17;;;1.77;;
8409;SDS011;4242;53.670;10.080;2022-11-09T08:54:48;6.83;;;1.70;;
8409;SDS011;4242;53.670;10.080;2022-11-09T08:57:15;3.13;;;1.60;;
8409;SDS011;4242;53.670;10.080;2022-11-09T08:59:41;5.30;;;1.87;;
8409;SDS011;4242;53.670;10.080;2022-11-09T09:02:08;3.47;;;1.80;;
8409;SDS011;4242;53.670;10.080;2022-11-09T09:04:34;4.63;;;1.90;;
8409;SDS011;4242;53.670;10.080;2022-11-09T09:07:00;6.83;;;2.13;;
8409;SDS011;4242;53.670;10.080;2022-11-09T09:09:26;3.60;;;1.60;;
8409;SDS011;4242;53.670;10.080;2022-11-09T09:11:52;6.07;;;1.90;;
8409;SDS011;4242;53.670;10.080;2022-11-09T09:14:18;6.53;;;1.70;;
8409;SDS011;4242;53.670;10.080;2022-11-09T09:16:44;5.23;;;1.80;;
8409;SDS011;4242;53.670;10.080;2022-11-09T09:19:10;4.40;;;1.77;;
8409;SDS011;4242;53.670;10.080;2022-11-09T09:21:36;4.33;;;1.70;;
8409;SDS011;4242;53.670;10.080;2022-11-09T09:24:02;7.33;;;2.10;;
8409;SDS011;4242;53.670;10.080;2022-11-09T09:26:28;6.63;;;2.00;;
8409;SDS011;4242;53.670;10.080;2022-11-09T09:28:54;5.53;;;1.77;;
8409;SDS011;4242;53.670;10.080;2022-11-09T09:31:20;4.37;;;2.00;;
8409;SDS011;4242;53.670;10.080;2022-11-09T09:33:46;6.83;;;2.30;;
8409;SDS011;4242;53.670;10.080;2022-11-09T09:36:16;5.70;;;2.30;;
8409;SDS011;4242;53.670;10.080;2022-11-09T09:38:42;3.07;;;1.70;;
8409;SDS011;4242;53.670;10.080;2022-11-09T09:41:11;6.27;;;1.93;;
8409;SDS011;4242;53.670;10.080;2022-11-09T09:43:45;3.63;;;2.10;;
8409;SDS011;4242;53.670;10.080;2022-11-09T09:46:21;6.07;;;2.03;;
8409;SDS011;4242;53.670;10.080;2022-11-09T09:48:49;3.73;;;1.90;;
8409;SDS011;4242;53.670;10.080;2022-11-09T09:51:18;5.70;;;1.97;;
8409;SDS011;4242;53.670;10.080;2022-11-09T09:53:46;6.13;;;2.00;;
8409;SDS011;4242;53.670;10.080;2022-11-09T09:56:19;4.87;;;2.10;;
8409;SDS011;4242;53.670;10.080;2022-11-09T09:58:48;4.77;;;1.83;;
8409;SDS011;4242;53.670;10.080;2022-11-09T10:01:18;8.70;;;2.13;;
8409;SDS011;4242;53.670;10.080;2022-11-09T10:03:44;5.20;;;2.00;;
8409;SDS011;4242;53.670;10.080;2022-11-09T10:06:30;3.93;;;1.60;;
8409;SDS011;4242;53.670;10.080;2022-11-09T10:11:41;8.70;;;2.00;;
8409;SDS011;4242;53.670;10.080;2022-11-09T10:16:37;7.20;;;2.03;;
8409;SDS011;4242;53.670;10.080;2022-11-09T10:19:17;9.87;;;2.63;;
8409;SDS011;4242;53.670;10.080;2022-11-09T10:21:50;8.03;;;2.13;;
8409;SDS011;4242;53.670;10.080;2022-11-09T10:24:25;5.60;;;2.17;;
8409;SDS011;4242;53.670;10.080;2022-11-09T10:26:53;6.10;;;2.23;;
8409;SDS011;4242;53.670;10.080;2022-11-09T10:31:58;9.77;;;2.17;;
8409;SDS011;4242;53.670;10.080;2022-11-09T10:34:32;6.50;;;2.20;;
8409;SDS011;4242;53.670;10.080;2022-11-09T10:37:14;4.47;;;2.00;;
8409;SDS011;4242;53.670;10.080;2022-11-09T10:39:45;4.80;;;2.83;;
8409;SDS011;4242;53.670;10.080;2022-11-09T10:42:12;6.33;;;2.00;;
8409;SDS011;4242;53.670;10.080;2022-11-09T10:44:39;7.80;;;3.23;;
8409;SDS011;4242;53.670;10.080;2022-11-09T10:47:09;4.50;;;2.13;;
8409;SDS011;4242;53.670;10.080;2022-11-09T10:49:36;5.87;;;2.10;;
8409;SDS011;4242;53.670;10.080;2022-11-09T10:52:02;4.27;;;2.00;;
8409;SDS011;4242;53.670;10.080;2022-11-09T10:54:29;5.07;;;2.43;;
8409;SDS011;4242;53.670;10.080;2022-11-09T10:57:00;3.00;;;1.63;;
8409;SDS011;4242;53.670;10.080;2022-11-09T11:01:56;7.10;;;2.00;;
8409;SDS011;4242;53.670;10.080;2022-11-09T11:04:23;10.03;;;2.00;;
8409;SDS011;4242;53.670;10.080;2022-11-09T11:06:49;8.97;;;2.20;;
8409;SDS011;4242;53.670;10.080;2022-11-09T11:09:17;6.83;;;2.00;;
8409;SDS011;4242;53.670;10.080;2022-11-09T11:11:44;5.37;;;2.07;;
8409;SDS011;4242;53.670;10.080;2022-11-09T11:16:43;7.63;;;3.20;;
8409;SDS011;4242;53.670;10.080;2022-11-09T11:19:26;8.13;;;3.00;;
8409;SDS011;4242;53.670;10.080;2022-11-09T11:22:14;6.63;;;2.30;;
8409;SDS011;4242;53.670;10.080;2022-11-09T11:30:15;4.37;;;2.20;;
8409;SDS011;4242;53.670;10.080;2022-11-09T11:32:40;4.13;;;1.80;;
8409;SDS011;4242;53.670;10.080;2022-11-09T11:35:13;4.27;;;1.70;;
8409;SDS011;4242;53.670;10.080;2022-11-09T11:37:43;11.07;;;1.90;;
8409;SDS011;4242;53.670;10.080;2022-11-09T11:40:20;6.50;;;2.23;;
8409;SDS011;4242;53.670;10.080;2022-11-09T11:45:35;9.17;;;2.30;;
8409;SDS011;4242;53.670;10.080;2022-11-09T11:50:49;4.43;;;1.70;;
8409;SDS011;4242;53.670;10.080;2022-11-09T11:58:48;5.60;;;2.30;;
8409;SDS011;4242;53.670;10.080;2022-11-09T12:01:24;6.57;;;2.10;;
8409;SDS011;4242;53.670;10.080;2022-11-09T12:09:02;4.17;;;1.90;;
8409;SDS011;4242;53.670;10.080;2022-11-09T12:16:40;6.90;;;2.10;;
8409;SDS011;4242;53.670;10.080;2022-11-09T12:32:21;10.30;;;2.40;;
8409;SDS011;4242;53.670;10.080;2022-11-09T12:37:38;3.43;;;1.90;;
8409;SDS011;4242;53.670;10.080;2022-11-09T12:40:21;10.70;;;1.87;;
8409;SDS011;4242;53.670;10.080;2022-11-09T12:45:33;9.70;;;2.00;;
8409;SDS011;4242;53.670;10.080;2022-11-09T12:48:02;6.97;;;2.00;;
8409;SDS011;4242;53.670;10.080;2022-11-09T12:50:29;4.73;;;1.77;;
8409;SDS011;4242;53.670;10.080;2022-11-09T12:52:56;8.33;;;2.00;;
8409;SDS011;4242;53.670;10.080;2022-11-09T12:55:32;8.40;;;2.03;;
8409;SDS011;4242;53.670;10.080;2022-11-09T12:58:00;6.47;;;2.23;;
8409;SDS011;4242;53.670;10.080;2022-11-09T13:00:45;5.47;;;1.63;;
8409;SDS011;4242;53.670;10.080;2022-11-09T13:03:17;3.00;;;1.80;;
8409;SDS011;4242;53.670;10.080;2022-11-09T13:05:44;5.90;;;2.03;;
8409;SDS011;4242;53.670;10.080;2022-11-09T13:08:19;6.00;;;1.87;;
8409;SDS011;4242;53.670;10.080;2022-11-09T13:10:48;5.93;;;2.00;;
8409;SDS011;4242;53.670;10.080;2022-11-09T13:13:31;6.20;;;2.20;;
8409;SDS011;4242;53.670;10.080;2022-11-09T13:16:06;8.93;;;1.80;;
8409;SDS011;4242;53.670;10.080;2022-11-09T13:18:45;3.83;;;1.63;;
8409;SDS011;4242;53.670;10.080;2022-11-09T13:23:50;7.85;;;2.03;;
8409;SDS011;4242;53.670;10.080;2022-11-09T13:26:20;5.70;;;2.10;;
8409;SDS011;4242;53.670;10.080;2022-11-09T13:29:07;4.65;;;1.85;;
8409;SDS011;4242;53.670;10.080;2022-11-09T13:39:47;7.35;;;2.10;;
8409;SDS011;4242;53.670;10.080;2022-11-09T13:42:26;5.55;;;1.92;;
8409;SDS011;4242;53.670;10.080;2022-11-09T13:44:53;8.32;;;2.40;;
8409;SDS011;4242;53.670;10.080;2022-11-09T13:47:39;8.27;;;2.00;;
8409;SDS011;4242;53.670;10.080;2022-11-09T13:50:18;4.47;;;1.93;;
8409;SDS011;4242;53.670;10.080;2022-11-09T13:52:46;3.70;;;1.73;;
8409;SDS011;4242;53.670;10.080;2022-11-09T13:57:48;3.30;;;1.50;;
8409;SDS011;4242;53.670;10.080;2022-11-09T14:00:22;5.97;;;2.07;;
8409;SDS011;4242;53.670;10.080;2022-11-09T14:02:58;5.20;;;1.90;;
8409;SDS011;4242;53.670;10.080;2022-11-09T14:05:27;5.00;;;1.73;;
8409;SDS011;4242;53.670;10.080;2022-11-09T14:07:54;6.93;;;2.23;;
8409;SDS011;4242;53.670;10.080;2022-11-09T14:15:45;4.67;;;1.97;;
8409;SDS011;4242;53.670;10.080;2022-11-09T14:23:20;5.60;;;1.60;;
8409;SDS011;4242;53.670;10.080;2022-11-09T14:25:47;8.40;;;1.70;;
8409;SDS011;4242;53.670;10.080;2022-11-09T14:28:21;5.23;;;2.00;;
8409;SDS011;4242;53.670;10.080;2022-11-09T14:30:47;5.80;;;1.80;;
8409;SDS011;4242;53.670;10.080;2022-11-09T14:33:18;5.77;;;1.70;;
8409;SDS011;4242;53.670;10.080;2022-11-09T14:35:44;5.97;;;2.07;;
8409;SDS011;4242;53.670;10.080;2022-11-09T14:40:42;7.67;;;2.00;;
8409;SDS011;4242;53.670;10.080;2022-11-09T14:43:35;5.10;;;1.60;;
8409;SDS011;4242;53.670;10.080;2022-11-09T14:45:59;6.72;;;1.92;;
8409;SDS011;4242;53.670;10.080;2022-11-09T14:48:26;6.03;;;2.30;;
8409;SDS011;4242;53.670;10.080;2022-11-09T14:50:54;4.13;;;1.77;;
8409;SDS011;4242;53.670;10.080;2022-11-09T14:53:21;4.70;;;1.83;;
8409;SDS011;4242;53.670;10.080;2022-11-09T14:55:50;5.47;;;1.70;;
8409;SDS011;4242;53.670;10.080;2022-11-09T14:58:17;8.33;;;1.93;;
8409;SDS011;4242;53.670;10.080;2022-11-09T15:00:43;3.73;;;1.57;;
8409;SDS011;4242;53.670;10.080;2022-11-09T15:03:28;7.57;;;1.80;;
8409;SDS011;4242;53.670;10.080;2022-11-09T15:06:05;3.67;;;1.77;;
8409;SDS011;4242;53.670;10.080;2022-11-09T15:08:31;4.00;;;2.00;;
8409;SDS011;4242;53.670;10.080;2022-11-09T15:10:58;6.33;;;2.13;;
8409;SDS011;4242;53.670;10.080;2022-11-09T15:15:56;7.43;;;2.17;;
8409;SDS011;4242;53.670;10.080;2022-11-09T15:18:23;8.13;;;1.50;;
8409;SDS011;4242;53.670;10.080;2022-11-09T15:21:12;5.30;;;1.87;;
8409;SDS011;4242;53.670;10.080;2022-11-09T15:23:40;10.80;;;1.80;;
8409;SDS011;4242;53.670;10.080;2022-11-09T15:26:23;7.88;;;2.20;;
8409;SDS011;4242;53.670;10.080;2022-11-09T15:28:49;6.30;;;2.00;;
8409;SDS011;4242;53.670;10.080;2022-11-09T15:31:16;10.40;;;2.27;;
8409;SDS011;4242;53.670;10.080;2022-11-09T15:36:20;5.90;;;2.00;;
8409;SDS011;4242;53.670;10.080;2022-11-09T15:38:59;6.43;;;2.17;;
8409;SDS011;4242;53.670;10.080;2022-11-09T15:41:25;7.90;;;2.53;;
8409;SDS011;4242;53.670;10.080;2022-11-09T15:43:51;12.10;;;4.50;;
8409;SDS011;4242;53.670;10.080;2022-11-09T15:46:24;9.07;;;3.90;;
8409;SDS011;4242;53.670;10.080;2022-11-09T15:48:52;17.57;;;8.40;;
8409;SDS011;4242;53.670;10.080;2022-11-09T15:51:18;8.50;;;4.77;;
8409;SDS011;4242;53.670;10.080;2022-11-09T15:53:44;11.10;;;4.43;;
8409;SDS011;4242;53.670;10.080;2022-11-09T15:56:13;4.83;;;2.47;;
8409;SDS011;4242;53.670;10.080;2022-11-09T15:58:40;9.57;;;4.53;;
8409;SDS011;4242;53.670;10.080;2022-11-09T16:01:07;8.63;;;5.10;;
8409;SDS011;4242;53.670;10.080;2022-11-09T16:03:33;5.23;;;2.40;;
8409;SDS011;4242;53.670;10.080;2022-11-09T16:05:59;5.43;;;2.37;;
8409;SDS011;4242;53.670;10.080;2022-11-09T16:08:25;4.77;;;2.10;;
8409;SDS011;4242;53.670;10.080;2022-11-09T16:10:51;7.23;;;2.13;;
8409;SDS011;4242;53.670;10.080;2022-11-09T16:13:17;5.20;;;2.20;;
8409;SDS011;4242;53.670;10.080;2022-11-09T16:15:43;5.90;;;2.10;;
8409;SDS011;4242;53.670;10.080;2022-11-09T16:18:09;6.23;;;2.23;;
8409;SDS011;4242;53.670;10.080;2022-11-09T16:20:35;5.97;;;2.13;;
8409;SDS011;4242;53.670;10.080;2022-11-09T16:23:01;4.77;;;2.00;;
8409;SDS011;4242;53.670;10.080;2022-11-09T16:25:27;5.43;;;2.07;;
8409;SDS011;4242;53.670;10.080;2022-11-09T16:27:53;8.87;;;2.27;;
8409;SDS011;4242;53.670;10.080;2022-11-09T16:30:19;7.13;;;2.10;;
8409;SDS011;4242;53.670;10.080;2022-11-09T16:32:45;7.30;;;1.87;;
8409;SDS011;4242;53.670;10.080;2022-11-09T16:35:11;7.07;;;2.53;;
8409;SDS011;4242;53.670;10.080;2022-11-09T16:37:38;5.50;;;1.90;;
8409;SDS011;4242;53.670;10.080;2022-11-09T16:40:06;7.13;;;2.60;;